Aviation Digital Data Service (ADDS)

Output produced by METARs form (1806 UTC 19 October 2017)
found at http://www.aviationweather.gov/adds/metars/
 
LATI 191750Z 13002KT 6000 MIFG NSC 17/15 Q1019 NOSIG
TAF LATI 191700Z 1918/2018 VRB04KT CAVOK 
     TEMPO 1918/1924 4000 BR 
     TEMPO 2000/2006 1500 BCFG 
     TEMPO 2010/2017 32008KT
       
LATI 191750Z 13002KT 6000 MIFG NSC 17/15 Q1019 NOSIG
TAF LATI 191700Z 1918/2018 VRB04KT CAVOK 
     TEMPO 1918/1924 4000 BR 
     TEMPO 2000/2006 1500 BCFG 
     TEMPO 2010/2017 32008KT